Time;durP1;ratioP1;P1;durP2;ratioP2;P2;SDS_P1;SDS_P2;PMS_P1;PMS_P2;Temp;Humidity;BMP_temperature;BMP_pressure;BME280_temperature;BME280_humidity;BME280_pressure;Samples;Min_cycle;Max_cycle;Signal;HPM_P1;HPM_P2
2023/04/24 00:00:12;;;;;;;;;;;11.30;85.40;;;;;;5073529;28;20387;-31
2023/04/24 00:02:40;;;;;;;;;;;11.30;85.40;;;;;;5073372;28;20430;-28
2023/04/24 00:05:06;;;;;;;;;;;11.30;85.30;;;;;;5073376;28;19909;-32
2023/04/24 00:07:31;;;;;;;;;;;11.30;85.30;;;;;;5073281;28;19909;-28
2023/04/24 00:09:57;;;;;;;;;;;11.30;85.30;;;;;;5071841;28;19909;-30
2023/04/24 00:12:23;;;;;;;;;;;11.30;85.30;;;;;;5073221;28;19951;-33
2023/04/24 00:14:48;;;;;;;;;;;11.30;85.40;;;;;;5073071;28;20372;-30
2023/04/24 00:17:14;;;;;;;;;;;11.30;85.40;;;;;;5073200;28;19931;-31
2023/04/24 00:19:39;;;;;;;;;;;11.30;85.40;;;;;;5073219;28;20291;-29
2023/04/24 00:22:05;;;;;;;;;;;11.30;85.40;;;;;;5073018;28;19999;-29
2023/04/24 00:24:30;;;;;;;;;;;11.30;85.40;;;;;;5072774;28;20395;-29
2023/04/24 00:26:56;;;;;;;;;;;11.30;85.40;;;;;;5073043;28;20276;-30
2023/04/24 00:29:21;;;;;;;;;;;11.30;85.50;;;;;;5071582;28;20364;-43
2023/04/24 00:31:47;;;;;;;;;;;11.30;85.60;;;;;;5072803;28;19908;-29
2023/04/24 00:34:12;;;;;;;;;;;11.30;85.60;;;;;;5072788;28;19912;-30
2023/04/24 00:36:38;;;;;;;;;;;11.20;85.50;;;;;;5072963;28;19909;-31
2023/04/24 00:39:03;;;;;;;;;;;11.20;85.60;;;;;;5072576;28;19909;-29
2023/04/24 00:41:29;;;;;;;;;;;11.20;85.60;;;;;;5072390;28;19916;-31
2023/04/24 00:43:54;;;;;;;;;;;11.20;85.70;;;;;;5072497;28;20003;-28
2023/04/24 00:46:20;;;;;;;;;;;11.20;85.80;;;;;;5072614;28;19908;-30
2023/04/24 00:48:46;;;;;;;;;;;11.20;85.80;;;;;;5072549;28;19992;-29
2023/04/24 00:51:12;;;;;;;;;;;11.20;86.00;;;;;;5072405;28;19962;-28
2023/04/24 00:53:37;;;;;;;;;;;11.10;85.90;;;;;;5072452;28;20265;-29
2023/04/24 00:56:04;;;;;;;;;;;11.10;85.90;;;;;;5072690;28;19909;-31
2023/04/24 00:58:31;;;;;;;;;;;11.10;86.00;;;;;;5071403;28;20280;-30
2023/04/24 01:00:57;;;;;;;;;;;11.10;86.00;;;;;;5072223;28;19915;-30
2023/04/24 01:03:25;;;;;;;;;;;11.10;86.00;;;;;;5072242;28;19950;-32
2023/04/24 01:05:52;;;;;;;;;;;11.10;85.90;;;;;;5072190;28;20269;-30
2023/04/24 01:08:17;;;;;;;;;;;11.20;86.00;;;;;;5072201;28;19908;-36
2023/04/24 01:10:43;;;;;;;;;;;11.10;85.90;;;;;;5070682;28;19912;-29
2023/04/24 01:13:09;;;;;;;;;;;11.10;86.00;;;;;;5072143;28;19912;-29
2023/04/24 01:15:34;;;;;;;;;;;11.20;86.00;;;;;;5072065;28;20269;-30
2023/04/24 01:18:00;;;;;;;;;;;11.20;86.00;;;;;;5072197;28;19916;-30
2023/04/24 01:20:26;;;;;;;;;;;11.20;86.20;;;;;;5072019;28;19920;-29
2023/04/24 01:22:51;;;;;;;;;;;11.10;86.20;;;;;;5071955;28;20338;-29
2023/04/24 01:25:17;;;;;;;;;;;11.10;86.30;;;;;;5072015;28;19912;-29
2023/04/24 01:27:43;;;;;;;;;;;11.10;86.20;;;;;;5071916;28;19999;-29
2023/04/24 01:30:09;;;;;;;;;;;11.10;86.30;;;;;;5071880;28;20011;-30
2023/04/24 01:32:34;;;;;;;;;;;11.10;86.30;;;;;;5071909;28;19948;-30
2023/04/24 01:35:01;;;;;;;;;;;11.10;86.20;;;;;;5070778;28;19916;-34
2023/04/24 01:37:26;;;;;;;;;;;11.10;86.30;;;;;;5071854;28;19908;-29
2023/04/24 01:39:52;;;;;;;;;;;11.10;86.40;;;;;;5070677;28;20412;-31
2023/04/24 01:42:17;;;;;;;;;;;11.10;86.30;;;;;;5071891;28;19912;-29
2023/04/24 01:44:43;;;;;;;;;;;11.10;86.30;;;;;;5070572;28;19908;-30
2023/04/24 01:47:09;;;;;;;;;;;11.10;86.50;;;;;;5071820;28;19919;-29
2023/04/24 01:49:34;;;;;;;;;;;11.10;86.50;;;;;;5071937;28;19915;-30
2023/04/24 01:52:00;;;;;;;;;;;11.00;86.60;;;;;;5071588;28;20331;-31
2023/04/24 01:54:25;;;;;;;;;;;11.00;86.70;;;;;;5071462;28;19909;-33
2023/04/24 01:56:51;;;;;;;;;;;10.90;87.10;;;;;;5071614;28;19909;-29
2023/04/24 01:59:18;;;;;;;;;;;10.80;87.40;;;;;;5071670;28;20276;-30
2023/04/24 02:01:43;;;;;;;;;;;10.80;87.50;;;;;;5071940;28;20346;-29
2023/04/24 02:04:09;;;;;;;;;;;10.80;87.70;;;;;;5071593;28;19913;-32
2023/04/24 02:06:34;;;;;;;;;;;10.80;88.00;;;;;;5071658;28;19932;-30
2023/04/24 02:09:00;;;;;;;;;;;10.80;87.90;;;;;;5071455;28;19979;-29
2023/04/24 02:11:26;;;;;;;;;;;10.70;88.00;;;;;;5075002;28;20372;-31
2023/04/24 02:13:51;;;;;;;;;;;10.70;88.00;;;;;;5075446;28;19908;-30
2023/04/24 02:16:17;;;;;;;;;;;10.70;88.00;;;;;;5075445;28;19909;-32
2023/04/24 02:18:43;;;;;;;;;;;10.70;88.20;;;;;;5075385;28;19985;-30
2023/04/24 02:21:08;;;;;;;;;;;10.70;88.10;;;;;;5075141;28;19932;-28
2023/04/24 02:23:34;;;;;;;;;;;10.70;88.20;;;;;;5075348;28;19945;-31
2023/04/24 02:25:59;;;;;;;;;;;10.70;88.20;;;;;;5075211;28;19944;-29
2023/04/24 02:28:25;;;;;;;;;;;10.70;88.40;;;;;;5075151;28;19915;-28
2023/04/24 02:30:50;;;;;;;;;;;10.70;88.30;;;;;;5075070;28;20391;-29
2023/04/24 02:33:16;;;;;;;;;;;10.70;88.50;;;;;;5075118;28;19908;-29
2023/04/24 02:35:42;;;;;;;;;;;10.70;88.60;;;;;;5075335;28;19940;-29
2023/04/24 02:38:07;;;;;;;;;;;10.70;88.50;;;;;;5074879;28;19974;-30
2023/04/24 02:40:33;;;;;;;;;;;10.70;88.50;;;;;;5074955;28;19909;-28
2023/04/24 02:42:58;;;;;;;;;;;10.70;88.80;;;;;;5074838;28;19924;-29
2023/04/24 02:45:24;;;;;;;;;;;10.70;88.70;;;;;;5074827;28;19915;-28
2023/04/24 02:47:49;;;;;;;;;;;10.70;88.60;;;;;;5074718;28;19956;-28
2023/04/24 02:50:15;;;;;;;;;;;10.70;88.70;;;;;;5074868;28;19909;-27
2023/04/24 02:52:40;;;;;;;;;;;10.70;88.60;;;;;;5074601;28;19908;-28
2023/04/24 02:55:07;;;;;;;;;;;10.70;88.60;;;;;;5074610;28;20384;-38
2023/04/24 02:57:33;;;;;;;;;;;10.70;88.60;;;;;;5074794;28;19953;-28
2023/04/24 02:59:58;;;;;;;;;;;10.70;89.30;;;;;;5074543;28;19943;-28
2023/04/24 03:02:24;;;;;;;;;;;10.70;88.60;;;;;;5073165;28;19920;-27
2023/04/24 03:04:49;;;;;;;;;;;10.80;88.90;;;;;;5074418;28;19908;-28
2023/04/24 03:07:15;;;;;;;;;;;10.70;88.70;;;;;;5074396;28;19909;-32
2023/04/24 03:09:40;;;;;;;;;;;10.70;88.80;;;;;;5074204;28;19908;-31
2023/04/24 03:12:06;;;;;;;;;;;10.70;88.90;;;;;;5074435;28;19999;-28
2023/04/24 03:14:31;;;;;;;;;;;10.70;89.00;;;;;;5074291;28;19909;-30
2023/04/24 03:16:57;;;;;;;;;;;10.70;89.00;;;;;;5074556;28;19908;-30
2023/04/24 03:19:22;;;;;;;;;;;10.70;89.00;;;;;;5073959;28;19947;-28
2023/04/24 03:21:48;;;;;;;;;;;10.70;89.00;;;;;;5073168;28;19996;-29
2023/04/24 03:24:14;;;;;;;;;;;10.70;89.00;;;;;;5074255;28;19958;-27
2023/04/24 03:26:39;;;;;;;;;;;10.70;89.10;;;;;;5072722;28;20019;-28
2023/04/24 03:29:04;;;;;;;;;;;10.70;88.90;;;;;;5073997;28;19909;-30
2023/04/24 03:31:30;;;;;;;;;;;10.70;88.90;;;;;;5073925;28;19909;-36
2023/04/24 03:33:55;;;;;;;;;;;10.70;89.00;;;;;;5074003;28;19909;-36
2023/04/24 03:36:21;;;;;;;;;;;10.70;89.00;;;;;;5073762;28;19908;-31
2023/04/24 03:38:46;;;;;;;;;;;10.70;89.10;;;;;;5073827;28;19920;-37
2023/04/24 03:41:12;;;;;;;;;;;10.70;89.10;;;;;;5073747;28;19951;-29
2023/04/24 03:43:38;;;;;;;;;;;10.60;89.00;;;;;;5073881;28;19927;-33
2023/04/24 03:46:03;;;;;;;;;;;10.70;89.20;;;;;;5072322;28;20277;-31
2023/04/24 03:48:29;;;;;;;;;;;10.60;89.10;;;;;;5073491;28;19994;-28
2023/04/24 03:50:54;;;;;;;;;;;10.60;89.10;;;;;;5073811;28;19909;-27
2023/04/24 03:53:20;;;;;;;;;;;10.60;89.10;;;;;;5073549;28;19909;-28
2023/04/24 03:55:45;;;;;;;;;;;10.60;89.10;;;;;;5073464;28;20233;-28
2023/04/24 03:58:11;;;;;;;;;;;10.60;89.10;;;;;;5073393;28;19909;-30
2023/04/24 04:00:37;;;;;;;;;;;10.60;89.10;;;;;;5073648;28;19908;-28
2023/04/24 04:03:03;;;;;;;;;;;10.60;89.00;;;;;;5073203;28;19919;-29
2023/04/24 04:05:28;;;;;;;;;;;10.60;89.00;;;;;;5073210;28;20227;-26
2023/04/24 04:07:54;;;;;;;;;;;10.60;89.00;;;;;;5073304;28;19909;-31
2023/04/24 04:10:21;;;;;;;;;;;10.60;89.00;;;;;;5073085;28;19909;-38
2023/04/24 04:12:46;;;;;;;;;;;10.60;89.10;;;;;;5073109;28;19908;-31
2023/04/24 04:15:12;;;;;;;;;;;10.50;89.00;;;;;;5073119;28;19908;-32
2023/04/24 04:17:38;;;;;;;;;;;10.50;89.00;;;;;;5073007;28;20334;-35
2023/04/24 04:20:07;;;;;;;;;;;10.50;89.10;;;;;;5072914;28;20430;-28
2023/04/24 04:22:32;;;;;;;;;;;10.50;89.00;;;;;;5072813;28;19912;-31
2023/04/24 04:24:58;;;;;;;;;;;10.50;89.10;;;;;;5072974;28;20432;-28
2023/04/24 04:27:23;;;;;;;;;;;10.40;89.10;;;;;;5071625;28;19908;-29
2023/04/24 04:29:49;;;;;;;;;;;10.40;89.10;;;;;;5072946;28;19978;-32
2023/04/24 04:32:15;;;;;;;;;;;10.40;89.00;;;;;;5072858;28;20360;-29
2023/04/24 04:34:42;;;;;;;;;;;10.40;89.00;;;;;;5072460;28;20289;-29
2023/04/24 04:37:07;;;;;;;;;;;10.40;88.90;;;;;;5072826;28;19912;-31
2023/04/24 04:39:32;;;;;;;;;;;10.40;88.90;;;;;;5072590;28;19909;-29
2023/04/24 04:41:58;;;;;;;;;;;10.50;89.00;;;;;;5072529;28;19955;-29
2023/04/24 04:44:24;;;;;;;;;;;10.40;88.90;;;;;;5071220;28;20293;-28
2023/04/24 04:46:49;;;;;;;;;;;10.40;88.90;;;;;;5072649;28;19908;-28
2023/04/24 04:49:16;;;;;;;;;;;10.40;88.80;;;;;;5072613;28;19908;-29
2023/04/24 04:51:42;;;;;;;;;;;10.40;88.80;;;;;;5072341;28;19908;-29
2023/04/24 04:54:07;;;;;;;;;;;10.40;88.80;;;;;;5070999;28;20298;-29
2023/04/24 04:56:33;;;;;;;;;;;10.40;88.80;;;;;;5072208;28;19908;-32
2023/04/24 04:58:59;;;;;;;;;;;10.40;88.70;;;;;;5072279;28;19955;-37
2023/04/24 05:01:27;;;;;;;;;;;10.40;88.70;;;;;;5072070;28;19919;-27
2023/04/24 05:03:53;;;;;;;;;;;10.40;88.80;;;;;;5072192;28;19912;-30
2023/04/24 05:06:18;;;;;;;;;;;10.40;88.80;;;;;;5072192;28;19908;-28
2023/04/24 05:08:44;;;;;;;;;;;10.40;88.70;;;;;;5072022;28;19913;-30
2023/04/24 05:11:09;;;;;;;;;;;10.50;88.80;;;;;;5072145;28;19916;-28
2023/04/24 05:13:35;;;;;;;;;;;10.40;88.70;;;;;;5071969;28;19909;-29
2023/04/24 05:16:00;;;;;;;;;;;10.40;88.70;;;;;;5071992;28;19916;-30
2023/04/24 05:18:26;;;;;;;;;;;10.40;88.70;;;;;;5071992;28;20415;-28
2023/04/24 05:20:51;;;;;;;;;;;10.40;88.70;;;;;;5071904;28;19920;-28
2023/04/24 05:23:17;;;;;;;;;;;10.40;88.80;;;;;;5071949;28;19962;-28
2023/04/24 05:25:42;;;;;;;;;;;10.40;88.90;;;;;;5072096;28;19927;-28
2023/04/24 05:28:08;;;;;;;;;;;10.40;88.90;;;;;;5071916;28;19984;-32
2023/04/24 05:30:33;;;;;;;;;;;10.30;88.90;;;;;;5070644;28;20280;-28
2023/04/24 05:32:59;;;;;;;;;;;10.30;88.90;;;;;;5071994;28;19924;-31
2023/04/24 05:35:24;;;;;;;;;;;10.30;88.90;;;;;;5071873;28;19909;-27
2023/04/24 05:37:50;;;;;;;;;;;10.40;89.60;;;;;;5071894;28;20280;-30
2023/04/24 05:40:15;;;;;;;;;;;10.30;88.90;;;;;;5071930;28;20279;-30
2023/04/24 05:42:41;;;;;;;;;;;10.40;88.90;;;;;;5071818;28;19955;-28
2023/04/24 05:45:07;;;;;;;;;;;10.40;88.90;;;;;;5071380;28;19908;-28
2023/04/24 05:47:32;;;;;;;;;;;10.40;89.70;;;;;;5071639;28;19908;-28
2023/04/24 05:49:58;;;;;;;;;;;10.40;89.00;;;;;;5071853;28;19915;-31
2023/04/24 05:52:23;;;;;;;;;;;10.30;89.10;;;;;;5071848;28;20470;-30
2023/04/24 05:54:48;;;;;;;;;;;10.30;89.10;;;;;;5071974;28;19916;-35
2023/04/24 05:57:14;;;;;;;;;;;10.30;89.20;;;;;;5071951;28;20005;-30
2023/04/24 05:59:40;;;;;;;;;;;10.40;89.10;;;;;;5071719;28;20009;-28
2023/04/24 06:02:06;;;;;;;;;;;10.40;89.10;;;;;;5071710;28;19912;-29
2023/04/24 06:04:32;;;;;;;;;;;10.50;89.00;;;;;;5070305;28;20241;-28
2023/04/24 06:06:57;;;;;;;;;;;10.50;89.00;;;;;;5070260;28;19916;-28
2023/04/24 06:09:23;;;;;;;;;;;10.50;88.90;;;;;;5071488;28;19909;-32
2023/04/24 06:11:49;;;;;;;;;;;10.50;89.00;;;;;;5071652;28;19912;-28
2023/04/24 06:14:14;;;;;;;;;;;10.50;89.00;;;;;;5071678;28;19921;-29
2023/04/24 06:16:41;;;;;;;;;;;10.50;89.00;;;;;;5070374;28;20374;-35
2023/04/24 06:19:07;;;;;;;;;;;10.60;89.10;;;;;;5071450;28;20003;-30
2023/04/24 06:21:32;;;;;;;;;;;10.60;89.00;;;;;;5071148;28;20015;-30
2023/04/24 06:23:58;;;;;;;;;;;10.60;89.00;;;;;;5071509;28;19908;-29
2023/04/24 06:26:24;;;;;;;;;;;10.60;89.00;;;;;;5071518;28;19916;-34
2023/04/24 06:28:51;;;;;;;;;;;10.60;89.10;;;;;;5071442;28;19944;-29
2023/04/24 06:31:16;;;;;;;;;;;10.60;89.00;;;;;;5071449;28;20430;-30
2023/04/24 06:33:42;;;;;;;;;;;10.60;89.00;;;;;;5071467;28;19908;-28
2023/04/24 06:36:08;;;;;;;;;;;10.70;89.00;;;;;;5071359;28;19910;-28
2023/04/24 06:38:33;;;;;;;;;;;10.70;89.00;;;;;;5071123;28;20322;-32
2023/04/24 06:40:59;;;;;;;;;;;10.70;89.00;;;;;;5071156;28;19960;-30
2023/04/24 06:43:25;;;;;;;;;;;10.60;89.00;;;;;;5071198;28;20364;-34
2023/04/24 06:45:50;;;;;;;;;;;10.60;89.00;;;;;;5071362;28;19908;-27
2023/04/24 06:48:16;;;;;;;;;;;10.70;89.20;;;;;;5071229;28;19908;-30
2023/04/24 06:50:41;;;;;;;;;;;10.70;89.10;;;;;;5071145;28;19923;-29
2023/04/24 06:53:07;;;;;;;;;;;10.70;89.10;;;;;;5071161;28;19908;-30
2023/04/24 06:55:32;;;;;;;;;;;10.70;89.10;;;;;;5071112;28;19915;-28
2023/04/24 06:57:58;;;;;;;;;;;10.70;89.20;;;;;;5073563;28;19909;-28
2023/04/24 07:00:24;;;;;;;;;;;10.70;89.10;;;;;;5074693;28;19957;-32
2023/04/24 07:02:49;;;;;;;;;;;10.70;89.10;;;;;;5074624;28;19917;-35
2023/04/24 07:05:15;;;;;;;;;;;10.70;89.10;;;;;;5074664;28;19908;-30
2023/04/24 07:07:41;;;;;;;;;;;10.70;89.10;;;;;;5074425;28;20002;-33
2023/04/24 07:10:08;;;;;;;;;;;10.70;89.10;;;;;;5073309;28;19961;-29
2023/04/24 07:12:33;;;;;;;;;;;10.70;89.10;;;;;;5074579;28;19909;-34
2023/04/24 07:15:00;;;;;;;;;;;10.70;89.20;;;;;;5074538;28;19912;-29
2023/04/24 07:17:25;;;;;;;;;;;10.60;89.40;;;;;;5074350;28;19999;-29
2023/04/24 07:19:51;;;;;;;;;;;10.60;89.40;;;;;;5074299;28;19982;-28
2023/04/24 07:22:17;;;;;;;;;;;10.60;89.60;;;;;;5074240;28;20383;-34
2023/04/24 07:24:43;;;;;;;;;;;10.50;89.80;;;;;;5072926;28;19920;-35
2023/04/24 07:27:08;;;;;;;;;;;10.40;89.70;;;;;;5074642;28;19912;-28
2023/04/24 07:29:35;;;;;;;;;;;10.40;90.00;;;;;;5074157;28;20003;-33
2023/04/24 07:32:00;;;;;;;;;;;10.40;90.00;;;;;;5074164;28;19909;-29
2023/04/24 07:34:26;;;;;;;;;;;10.30;90.00;;;;;;5074084;28;20257;-31
2023/04/24 07:36:51;;;;;;;;;;;10.30;90.10;;;;;;5074137;28;20367;-32
2023/04/24 07:39:17;;;;;;;;;;;10.30;90.10;;;;;;5074081;28;20329;-30
2023/04/24 07:41:42;;;;;;;;;;;10.30;90.10;;;;;;5074094;28;19916;-30
2023/04/24 07:44:08;;;;;;;;;;;10.30;90.20;;;;;;5074088;28;19909;-28
2023/04/24 07:46:33;;;;;;;;;;;10.20;90.20;;;;;;5073806;28;19913;-30
2023/04/24 07:49:00;;;;;;;;;;;10.20;90.30;;;;;;5073921;28;20070;-31
2023/04/24 07:51:27;;;;;;;;;;;10.10;90.50;;;;;;5072485;28;19908;-30
2023/04/24 07:53:53;;;;;;;;;;;10.00;90.50;;;;;;5073785;28;19909;-28
2023/04/24 07:56:19;;;;;;;;;;;10.00;90.60;;;;;;5073764;28;19916;-30
2023/04/24 07:58:44;;;;;;;;;;;9.90;90.70;;;;;;5073332;28;19958;-28
2023/04/24 08:01:09;;;;;;;;;;;9.80;90.90;;;;;;5073295;28;20007;-31
2023/04/24 08:03:35;;;;;;;;;;;9.70;90.80;;;;;;5073364;28;19912;-31
2023/04/24 08:06:00;;;;;;;;;;;9.60;90.80;;;;;;5073574;28;19913;-31
2023/04/24 08:08:26;;;;;;;;;;;9.60;91.00;;;;;;5072878;28;19908;-28
2023/04/24 08:10:51;;;;;;;;;;;9.50;91.00;;;;;;5072938;28;20123;-31
2023/04/24 08:13:17;;;;;;;;;;;9.50;91.10;;;;;;5073144;28;19908;-29
2023/04/24 08:15:42;;;;;;;;;;;9.40;91.10;;;;;;5072953;28;19912;-29
2023/04/24 08:18:08;;;;;;;;;;;9.40;91.30;;;;;;5073368;28;19999;-32
2023/04/24 08:20:34;;;;;;;;;;;9.30;91.40;;;;;;5072919;28;19920;-31
2023/04/24 08:22:59;;;;;;;;;;;9.30;91.30;;;;;;5073091;28;19919;-32
2023/04/24 08:25:25;;;;;;;;;;;9.30;91.30;;;;;;5073361;28;19908;-29
2023/04/24 08:27:51;;;;;;;;;;;9.30;91.40;;;;;;5071502;28;19959;-29
2023/04/24 08:30:16;;;;;;;;;;;9.30;91.40;;;;;;5072878;28;19909;-28
2023/04/24 08:32:42;;;;;;;;;;;9.30;91.40;;;;;;5072901;28;20318;-32
2023/04/24 08:35:09;;;;;;;;;;;9.30;91.40;;;;;;5072982;28;20374;-31
2023/04/24 08:37:34;;;;;;;;;;;9.30;91.40;;;;;;5072990;28;19923;-29
2023/04/24 08:40:00;;;;;;;;;;;9.30;91.40;;;;;;5071447;28;19916;-30
2023/04/24 08:42:28;;;;;;;;;;;9.40;91.40;;;;;;5072675;28;19995;-28
2023/04/24 08:44:54;;;;;;;;;;;9.40;91.30;;;;;;5071272;28;19913;-29
2023/04/24 08:47:20;;;;;;;;;;;9.40;91.50;;;;;;5072862;28;19919;-28
2023/04/24 08:49:47;;;;;;;;;;;9.40;91.50;;;;;;5072724;28;19908;-33
2023/04/24 08:52:13;;;;;;;;;;;9.40;91.40;;;;;;5072538;28;19930;-28
2023/04/24 08:54:39;;;;;;;;;;;9.40;91.70;;;;;;5073148;28;19912;-28
2023/04/24 08:57:07;;;;;;;;;;;9.40;91.50;;;;;;5072857;28;19916;-31
2023/04/24 08:59:33;;;;;;;;;;;9.30;91.50;;;;;;5072378;28;20284;-43
2023/04/24 09:01:59;;;;;;;;;;;9.30;91.60;;;;;;5072501;28;19917;-28
2023/04/24 09:04:25;;;;;;;;;;;9.40;91.80;;;;;;5072459;28;20397;-33
2023/04/24 09:06:51;;;;;;;;;;;9.40;91.70;;;;;;5072481;28;19931;-28
2023/04/24 09:09:16;;;;;;;;;;;9.40;91.70;;;;;;5072199;28;20337;-28
2023/04/24 09:11:42;;;;;;;;;;;9.40;91.70;;;;;;5072298;28;20494;-28
2023/04/24 09:14:09;;;;;;;;;;;9.30;91.70;;;;;;5072353;28;19951;-30
2023/04/24 09:16:35;;;;;;;;;;;9.30;91.70;;;;;;5072225;28;19999;-28
2023/04/24 09:19:00;;;;;;;;;;;9.30;91.80;;;;;;5071867;28;19915;-28
2023/04/24 09:21:31;;;;;;;;;;;9.30;91.60;;;;;;5071515;28;19920;-27
2023/04/24 09:23:57;;;;;;;;;;;9.30;91.70;;;;;;5072057;28;19919;-29
2023/04/24 09:26:23;;;;;;;;;;;9.30;91.70;;;;;;5072055;28;19912;-28
2023/04/24 09:28:48;;;;;;;;;;;9.30;91.70;;;;;;5072090;28;19966;-29
2023/04/24 09:31:18;;;;;;;;;;;9.30;91.60;;;;;;5072104;28;19913;-31
2023/04/24 09:33:58;;;;;;;;;;;9.30;91.70;;;;;;5071930;28;19966;-30
2023/04/24 09:36:33;;;;;;;;;;;9.40;91.70;;;;;;5072057;28;19916;-30
2023/04/24 09:39:00;;;;;;;;;;;9.40;91.50;;;;;;5071970;28;20391;-29
2023/04/24 09:41:26;;;;;;;;;;;9.40;91.40;;;;;;5071808;28;19966;-31
2023/04/24 09:43:53;;;;;;;;;;;9.50;91.40;;;;;;5071985;28;19951;-32
2023/04/24 09:46:18;;;;;;;;;;;9.50;91.30;;;;;;5071949;28;19916;-28
2023/04/24 09:48:44;;;;;;;;;;;9.50;91.10;;;;;;5070423;28;19912;-36
2023/04/24 09:51:12;;;;;;;;;;;9.60;91.00;;;;;;5071884;28;19913;-28
2023/04/24 09:53:41;;;;;;;;;;;9.60;90.80;;;;;;5071777;28;19962;-29
2023/04/24 09:56:10;;;;;;;;;;;9.60;90.50;;;;;;5071680;28;19914;-29
2023/04/24 09:58:36;;;;;;;;;;;9.70;90.50;;;;;;5071556;28;19963;-33
2023/04/24 10:01:01;;;;;;;;;;;9.70;90.30;;;;;;5071755;28;19947;-30
2023/04/24 10:03:29;;;;;;;;;;;9.80;90.20;;;;;;5071572;28;19916;-30
2023/04/24 10:05:58;;;;;;;;;;;9.90;90.10;;;;;;5071753;28;19920;-28
2023/04/24 10:08:23;;;;;;;;;;;9.90;90.10;;;;;;5071475;28;19919;-29
2023/04/24 10:10:49;;;;;;;;;;;10.00;89.70;;;;;;5071651;28;19913;-28
2023/04/24 10:13:15;;;;;;;;;;;10.10;89.80;;;;;;5070413;28;20372;-36
2023/04/24 10:15:41;;;;;;;;;;;10.20;90.00;;;;;;5071665;28;19947;-30
2023/04/24 10:18:07;;;;;;;;;;;10.30;89.70;;;;;;5071727;28;20376;-29
2023/04/24 10:20:33;;;;;;;;;;;10.40;89.10;;;;;;5071361;28;19963;-32
2023/04/24 10:22:59;;;;;;;;;;;10.50;88.30;;;;;;5071435;28;19974;-29
2023/04/24 10:25:29;;;;;;;;;;;10.70;87.10;;;;;;5071350;28;19915;-29
2023/04/24 10:27:59;;;;;;;;;;;10.70;87.10;;;;;;5071572;28;19909;-29
2023/04/24 10:30:25;;;;;;;;;;;10.90;86.20;;;;;;5071547;28;19920;-29
2023/04/24 10:32:51;;;;;;;;;;;11.00;86.50;;;;;;5075116;28;19915;-29
2023/04/24 10:35:17;;;;;;;;;;;11.10;84.70;;;;;;5075449;28;20384;-29
2023/04/24 10:37:48;;;;;;;;;;;11.20;83.10;;;;;;5075191;28;19999;-38
2023/04/24 10:40:25;;;;;;;;;;;11.10;82.00;;;;;;5075223;28;19908;-29
2023/04/24 10:42:53;;;;;;;;;;;11.00;82.30;;;;;;5074889;28;19937;-29
2023/04/24 10:45:21;;;;;;;;;;;11.00;83.20;;;;;;5075041;28;20019;-29
2023/04/24 10:48:03;;;;;;;;;;;11.00;82.10;;;;;;5075057;28;19908;-30
2023/04/24 10:50:30;;;;;;;;;;;10.90;83.00;;;;;;5074916;28;20003;-28
2023/04/24 10:53:05;;;;;;;;;;;10.90;82.00;;;;;;5074953;28;19909;-32
2023/04/24 10:55:47;;;;;;;;;;;10.90;83.00;;;;;;5074821;28;19915;-32
2023/04/24 10:58:14;;;;;;;;;;;10.90;83.00;;;;;;5075217;28;20053;-32
2023/04/24 11:00:41;;;;;;;;;;;10.90;82.50;;;;;;5075018;28;19909;-29
2023/04/24 11:03:21;;;;;;;;;;;10.90;80.30;;;;;;5074768;28;19919;-29
2023/04/24 11:05:55;;;;;;;;;;;10.90;80.90;;;;;;5074760;28;20422;-30
2023/04/24 11:08:22;;;;;;;;;;;11.00;79.40;;;;;;5074737;28;19909;-28
2023/04/24 11:10:54;;;;;;;;;;;11.00;80.40;;;;;;5074386;28;19912;-28
2023/04/24 11:13:23;;;;;;;;;;;11.00;79.70;;;;;;5074586;28;19909;-28
2023/04/24 11:16:08;;;;;;;;;;;10.80;80.10;;;;;;5074495;28;19908;-28
2023/04/24 11:18:45;;;;;;;;;;;10.70;79.80;;;;;;5074242;28;20007;-31
2023/04/24 11:21:11;;;;;;;;;;;10.60;80.70;;;;;;5074192;28;19999;-29
2023/04/24 11:23:37;;;;;;;;;;;10.70;80.40;;;;;;5074212;28;19958;-29
2023/04/24 11:26:32;;;;;;;;;;;10.80;80.00;;;;;;5074472;28;19939;-30
2023/04/24 11:29:06;;;;;;;;;;;10.90;80.30;;;;;;5074080;28;19916;-31
2023/04/24 11:31:39;;;;;;;;;;;11.00;80.50;;;;;;5074251;28;19909;-29
2023/04/24 11:34:12;;;;;;;;;;;11.10;79.30;;;;;;5074207;28;20094;-29
2023/04/24 11:36:38;;;;;;;;;;;11.10;78.60;;;;;;5074156;28;20004;-27
2023/04/24 11:39:04;;;;;;;;;;;11.10;78.30;;;;;;5073959;28;20415;-32
2023/04/24 11:41:30;;;;;;;;;;;11.10;79.00;;;;;;5073972;28;20260;-28
2023/04/24 11:43:56;;;;;;;;;;;11.10;78.80;;;;;;5073020;28;20265;-32
2023/04/24 11:46:21;;;;;;;;;;;11.10;78.70;;;;;;5074333;28;19908;-32
2023/04/24 11:48:47;;;;;;;;;;;11.20;78.20;;;;;;5073720;28;19909;-30
2023/04/24 11:51:13;;;;;;;;;;;11.20;77.30;;;;;;5073748;28;19944;-30
2023/04/24 11:53:38;;;;;;;;;;;11.20;76.50;;;;;;5073698;28;19909;-31
2023/04/24 11:56:04;;;;;;;;;;;11.20;76.90;;;;;;5073705;28;19908;-29
2023/04/24 11:58:34;;;;;;;;;;;11.10;77.80;;;;;;5073446;28;19954;-28
2023/04/24 12:01:01;;;;;;;;;;;11.10;77.90;;;;;;5073417;28;19974;-28
2023/04/24 12:03:26;;;;;;;;;;;11.00;76.70;;;;;;5073394;28;19913;-29
2023/04/24 12:05:52;;;;;;;;;;;10.90;76.90;;;;;;5073326;28;19909;-30
2023/04/24 12:08:27;;;;;;;;;;;10.80;77.80;;;;;;5073500;28;20288;-29
2023/04/24 12:10:52;;;;;;;;;;;10.70;78.30;;;;;;5073254;28;20020;-29
2023/04/24 12:13:18;;;;;;;;;;;10.60;79.10;;;;;;5073302;28;19948;-29
2023/04/24 12:15:43;;;;;;;;;;;10.40;80.10;;;;;;5073308;28;19962;-29
2023/04/24 12:18:11;;;;;;;;;;;10.30;81.10;;;;;;5073207;28;19923;-29
2023/04/24 12:20:36;;;;;;;;;;;10.30;81.50;;;;;;5072997;28;20018;-30
2023/04/24 12:23:02;;;;;;;;;;;10.40;82.50;;;;;;5073139;28;20020;-28
2023/04/24 12:25:29;;;;;;;;;;;10.50;82.00;;;;;;5073324;28;19916;-29
2023/04/24 12:28:03;;;;;;;;;;;10.50;82.20;;;;;;5073117;28;19924;-28
2023/04/24 12:30:29;;;;;;;;;;;10.60;82.10;;;;;;5073085;28;20297;-30
2023/04/24 12:32:56;;;;;;;;;;;10.80;81.60;;;;;;5072940;28;20182;-31
2023/04/24 12:35:23;;;;;;;;;;;10.90;81.60;;;;;;5072953;28;20315;-28
2023/04/24 12:37:49;;;;;;;;;;;11.10;81.20;;;;;;5072687;28;20277;-30
2023/04/24 12:40:15;;;;;;;;;;;11.20;80.80;;;;;;5072844;28;20011;-28
2023/04/24 12:42:42;;;;;;;;;;;11.40;80.20;;;;;;5072711;28;20003;-29
2023/04/24 12:45:08;;;;;;;;;;;11.60;79.40;;;;;;5072780;28;19909;-28
2023/04/24 12:47:34;;;;;;;;;;;11.60;79.10;;;;;;5072938;28;19908;-28
2023/04/24 12:50:00;;;;;;;;;;;11.70;77.70;;;;;;5073064;28;19912;-28
2023/04/24 12:52:27;;;;;;;;;;;11.70;76.50;;;;;;5072897;28;19909;-30
2023/04/24 12:54:53;;;;;;;;;;;11.70;77.50;;;;;;5072495;28;19908;-29
2023/04/24 12:57:18;;;;;;;;;;;11.60;76.70;;;;;;5072611;28;19915;-28
2023/04/24 12:59:44;;;;;;;;;;;11.50;77.20;;;;;;5072527;28;19908;-32
2023/04/24 13:02:10;;;;;;;;;;;11.50;77.30;;;;;;5072390;28;19990;-33
2023/04/24 13:04:36;;;;;;;;;;;11.50;77.60;;;;;;5072287;28;20570;-28
2023/04/24 13:07:01;;;;;;;;;;;11.60;77.60;;;;;;5071108;28;19922;-30
2023/04/24 13:09:27;;;;;;;;;;;11.70;76.40;;;;;;5072173;28;19916;-30
2023/04/24 13:11:52;;;;;;;;;;;11.80;77.20;;;;;;5072489;28;19912;-29
2023/04/24 13:14:18;;;;;;;;;;;11.90;76.20;;;;;;5072246;28;19962;-30
2023/04/24 13:16:43;;;;;;;;;;;11.90;75.90;;;;;;5072255;28;19909;-29
2023/04/24 13:19:09;;;;;;;;;;;12.00;76.00;;;;;;5072389;28;20003;-29
2023/04/24 13:21:34;;;;;;;;;;;11.90;75.70;;;;;;5071948;28;20400;-31
2023/04/24 13:24:00;;;;;;;;;;;11.90;76.00;;;;;;5072181;28;20002;-29
2023/04/24 13:26:27;;;;;;;;;;;11.80;76.20;;;;;;5071310;28;20301;-29
2023/04/24 13:28:53;;;;;;;;;;;11.70;76.20;;;;;;5072194;28;19955;-31
2023/04/24 13:31:18;;;;;;;;;;;11.60;76.10;;;;;;5071949;28;20351;-29
2023/04/24 13:33:44;;;;;;;;;;;11.50;76.40;;;;;;5072128;28;19909;-29
2023/04/24 13:36:09;;;;;;;;;;;11.40;75.10;;;;;;5072308;28;19999;-29
2023/04/24 13:38:35;;;;;;;;;;;11.20;75.30;;;;;;5071890;28;19909;-31
2023/04/24 13:41:00;;;;;;;;;;;11.20;75.50;;;;;;5072058;28;19909;-29
2023/04/24 13:43:26;;;;;;;;;;;11.10;75.30;;;;;;5071749;28;20363;-33
2023/04/24 13:45:52;;;;;;;;;;;11.10;74.70;;;;;;5072049;28;19915;-30
2023/04/24 13:48:17;;;;;;;;;;;11.10;74.60;;;;;;5072169;28;19909;-35
2023/04/24 13:50:43;;;;;;;;;;;11.10;74.90;;;;;;5071993;28;20011;-31
2023/04/24 13:53:09;;;;;;;;;;;11.00;75.00;;;;;;5072121;28;20265;-29
2023/04/24 13:55:35;;;;;;;;;;;11.10;74.90;;;;;;5071828;28;19916;-31
2023/04/24 13:58:01;;;;;;;;;;;11.00;75.30;;;;;;5072198;28;19908;-28
2023/04/24 14:00:27;;;;;;;;;;;10.90;74.50;;;;;;5072108;28;20276;-30
2023/04/24 14:02:52;;;;;;;;;;;10.90;75.40;;;;;;5072231;28;20261;-29
2023/04/24 14:05:18;;;;;;;;;;;11.00;75.70;;;;;;5071690;28;19915;-35
2023/04/24 14:07:43;;;;;;;;;;;11.20;75.10;;;;;;5075936;28;20364;-29
2023/04/24 14:10:09;;;;;;;;;;;11.40;74.70;;;;;;5075625;28;19913;-30
2023/04/24 14:12:34;;;;;;;;;;;11.50;73.40;;;;;;5075757;28;20387;-29